createdAt,value
2022-10-20T11:33:02.909Z,10.77
2022-10-20T11:35:36.803Z,8.87
2022-10-20T11:38:15.934Z,5.70
2022-10-20T11:40:48.798Z,9.77
2022-10-20T11:43:24.615Z,9.20
2022-10-20T11:45:56.868Z,7.70
2022-10-20T11:48:31.542Z,7.40
2022-10-20T11:51:31.958Z,5.83
2022-10-20T11:54:15.032Z,8.70
2022-10-20T11:57:06.280Z,9.10
2022-10-20T12:00:11.645Z,7.67
2022-10-20T12:03:06.481Z,9.83
2022-10-20T12:05:56.946Z,5.50
2022-10-20T12:08:43.618Z,8.40
2022-10-20T12:11:17.342Z,4.30
2022-10-20T12:13:55.839Z,5.37
2022-10-20T12:17:00.955Z,7.67
2022-10-20T12:19:30.479Z,6.77
2022-10-20T12:22:01.743Z,7.87
2022-10-20T12:24:36.272Z,7.53
2022-10-20T12:27:20.534Z,7.43
2022-10-20T12:30:00.054Z,7.57
2022-10-20T12:32:54.534Z,5.53
2022-10-20T12:35:58.242Z,6.97
2022-10-20T12:38:28.426Z,8.57
2022-10-20T12:41:03.525Z,4.97
2022-10-20T12:43:34.935Z,5.83
2022-10-20T12:46:12.081Z,7.10
2022-10-20T12:48:46.999Z,7.23
2022-10-20T12:51:22.758Z,10.03
2022-10-20T12:54:02.223Z,6.50
2022-10-20T12:56:37.096Z,8.87
2022-10-20T12:59:24.839Z,6.27
2022-10-20T13:02:35.191Z,5.73
2022-10-20T13:05:24.501Z,5.90
2022-10-20T13:08:17.162Z,8.90
2022-10-20T13:10:47.071Z,4.93
2022-10-20T13:13:51.865Z,5.80
2022-10-20T13:16:22.957Z,6.60
2022-10-20T13:18:53.485Z,4.60
2022-10-20T13:21:33.866Z,6.77
2022-10-20T13:24:16.030Z,4.80
2022-10-20T13:26:51.174Z,6.80
2022-10-20T13:29:23.371Z,6.80
2022-10-20T13:32:03.688Z,6.70
2022-10-20T13:34:38.922Z,6.87
2022-10-20T13:37:23.732Z,10.60
2022-10-20T13:40:04.223Z,7.40
2022-10-20T13:42:48.905Z,9.00
2022-10-20T13:45:26.256Z,7.67
2022-10-20T13:48:05.730Z,7.13
2022-10-20T13:50:36.437Z,9.60
2022-10-20T13:53:11.067Z,5.87
2022-10-20T13:55:58.329Z,5.97
2022-10-20T13:58:28.082Z,8.00
2022-10-20T14:01:02.571Z,6.40
2022-10-20T14:03:32.686Z,7.67
2022-10-20T14:06:00.660Z,5.67
2022-10-20T14:08:28.812Z,7.17
2022-10-20T14:10:59.424Z,7.80
2022-10-20T14:13:32.241Z,7.70
2022-10-20T14:16:01.170Z,9.90
2022-10-20T14:18:31.506Z,5.67
2022-10-20T14:21:02.611Z,7.90
2022-10-20T14:23:35.772Z,7.23
2022-10-20T14:26:05.273Z,10.23
2022-10-20T14:28:36.959Z,10.90
2022-10-20T14:31:06.432Z,6.77
2022-10-20T14:33:37.513Z,8.97
2022-10-20T14:36:06.299Z,10.00
2022-10-20T14:38:37.787Z,6.90
2022-10-20T14:41:07.730Z,7.13
2022-10-20T14:43:40.491Z,8.60
2022-10-20T14:46:10.993Z,8.53
2022-10-20T14:48:42.676Z,6.77
2022-10-20T14:51:31.224Z,8.27
2022-10-20T14:54:26.683Z,9.80
2022-10-20T14:56:56.480Z,7.60
2022-10-20T14:59:27.791Z,6.77
2022-10-20T15:02:08.017Z,11.83
2022-10-20T15:04:37.049Z,10.57
2022-10-20T15:07:07.158Z,10.70
2022-10-20T15:09:40.665Z,10.70
2022-10-20T15:12:16.201Z,7.07
2022-10-20T15:14:48.150Z,6.93
2022-10-20T15:17:36.780Z,7.83
2022-10-20T15:20:34.054Z,7.47
2022-10-20T15:23:04.046Z,9.67
2022-10-20T15:25:35.941Z,7.13
2022-10-20T15:28:03.906Z,7.47
2022-10-20T15:30:33.491Z,9.80
2022-10-20T15:33:01.617Z,8.73
2022-10-20T15:35:31.018Z,11.17
2022-10-20T15:37:59.072Z,9.70
2022-10-20T15:40:26.940Z,10.40
2022-10-20T15:42:55.318Z,9.63
2022-10-20T15:45:26.054Z,8.40
2022-10-20T15:47:55.244Z,8.50
2022-10-20T15:50:24.875Z,9.90
2022-10-20T15:52:54.398Z,9.47
2022-10-20T15:55:26.252Z,10.83
2022-10-20T15:57:55.834Z,9.10
2022-10-20T16:00:25.782Z,10.90
2022-10-20T16:02:55.165Z,10.00
2022-10-20T16:05:25.115Z,9.00
2022-10-20T16:07:54.276Z,7.87
2022-10-20T16:10:23.401Z,10.13
2022-10-20T16:12:51.570Z,9.20
2022-10-20T16:15:19.785Z,8.40
2022-10-20T16:20:17.295Z,12.03
2022-10-20T16:22:45.294Z,9.70
2022-10-20T16:25:13.146Z,10.97
2022-10-20T16:27:41.232Z,8.27
2022-10-20T16:30:10.044Z,9.23
2022-10-20T16:32:38.754Z,11.37
2022-10-20T16:35:07.934Z,9.30
2022-10-20T16:37:37.719Z,8.17
2022-10-20T16:40:06.923Z,8.47
2022-10-20T16:42:34.809Z,9.23
2022-10-20T16:45:02.935Z,11.30
2022-10-20T16:47:30.852Z,9.03
2022-10-20T16:49:58.883Z,10.87
2022-10-20T16:52:26.968Z,9.50
2022-10-20T16:54:56.700Z,6.53
2022-10-20T16:57:24.684Z,10.33
2022-10-20T16:59:52.648Z,8.97
2022-10-20T17:02:20.892Z,8.37
2022-10-20T17:04:49.704Z,8.27
2022-10-20T17:07:18.119Z,9.53
2022-10-20T17:09:47.008Z,9.57
2022-10-20T17:12:16.265Z,8.67
2022-10-20T17:14:44.276Z,6.60
2022-10-20T17:17:12.174Z,13.03
2022-10-20T17:19:40.939Z,8.67
2022-10-20T17:24:39.108Z,10.90
2022-10-20T17:27:07.151Z,7.80
2022-10-20T17:29:36.788Z,11.03
2022-10-20T17:32:04.734Z,10.20
2022-10-20T17:34:32.857Z,13.80
2022-10-20T17:37:00.775Z,10.23
2022-10-20T17:39:28.572Z,7.13
2022-10-20T17:41:56.616Z,8.30
2022-10-20T17:44:24.692Z,9.33
2022-10-20T17:46:53.923Z,10.10
2022-10-20T17:49:22.068Z,11.33
2022-10-20T17:51:49.988Z,13.03
2022-10-20T17:54:18.740Z,8.40
2022-10-20T17:56:47.976Z,8.80
2022-10-20T17:59:15.936Z,7.43
2022-10-20T18:01:43.938Z,7.13
2022-10-20T18:04:15.547Z,8.17
2022-10-20T18:06:44.348Z,11.60
2022-10-20T18:09:14.913Z,8.63
2022-10-20T18:11:46.531Z,7.97
2022-10-20T18:14:14.727Z,9.20
2022-10-20T18:16:43.668Z,8.43
2022-10-20T18:19:15.809Z,11.10
2022-10-20T18:21:44.294Z,8.10
2022-10-20T18:24:15.792Z,10.00
2022-10-20T18:26:43.977Z,11.30
2022-10-20T18:29:14.231Z,10.73
2022-10-20T18:31:45.143Z,9.60
2022-10-20T18:34:17.244Z,11.10
2022-10-20T18:36:45.915Z,11.83
2022-10-20T18:39:15.234Z,10.87
2022-10-20T18:41:45.457Z,10.80
2022-10-20T18:44:15.963Z,8.70
2022-10-20T18:46:43.994Z,8.57
2022-10-20T18:49:15.516Z,9.13
2022-10-20T18:51:43.725Z,12.50
2022-10-20T18:54:13.414Z,10.07
2022-10-20T18:56:42.868Z,10.20
2022-10-20T18:59:14.162Z,8.53
2022-10-20T19:01:42.561Z,11.53
2022-10-20T19:04:11.912Z,10.00
2022-10-20T19:06:42.858Z,8.23
2022-10-20T19:09:14.482Z,9.67
2022-10-20T19:11:43.198Z,8.95
2022-10-20T19:14:11.994Z,13.17
2022-10-20T19:16:41.843Z,8.40
2022-10-20T19:19:10.483Z,8.90
2022-10-20T19:21:38.698Z,9.40
2022-10-20T19:24:10.135Z,9.77
2022-10-20T19:26:40.427Z,8.70
2022-10-20T19:29:10.904Z,9.27
2022-10-20T19:31:41.214Z,11.20
2022-10-20T19:34:11.166Z,10.23
2022-10-20T19:36:42.013Z,9.73
2022-10-20T19:39:12.659Z,11.80
2022-10-20T19:41:41.369Z,10.37
2022-10-20T19:44:12.516Z,8.80
2022-10-20T19:46:40.725Z,9.43
2022-10-20T19:49:09.073Z,10.03
2022-10-20T19:51:37.087Z,13.13
2022-10-20T19:54:05.126Z,11.30
2022-10-20T19:56:35.798Z,9.53
2022-10-20T19:59:05.078Z,9.90
2022-10-20T20:01:33.355Z,9.30
2022-10-20T20:04:01.430Z,10.30
2022-10-20T20:06:29.484Z,8.67
2022-10-20T20:08:59.751Z,10.00
2022-10-20T20:11:30.773Z,11.47
2022-10-20T20:14:02.205Z,9.63
2022-10-20T20:16:30.984Z,9.40
2022-10-20T20:18:59.448Z,11.77
2022-10-20T20:21:27.739Z,10.40
2022-10-20T20:24:00.686Z,12.70
2022-10-20T20:26:30.167Z,9.10
2022-10-20T20:28:59.683Z,11.13
2022-10-20T20:31:28.358Z,8.20
2022-10-20T20:33:58.456Z,9.40
2022-10-20T20:36:27.882Z,11.70
2022-10-20T20:38:57.413Z,13.17
2022-10-20T20:41:27.355Z,9.60
2022-10-20T20:43:55.534Z,9.60
2022-10-20T20:46:28.862Z,11.07
2022-10-20T20:48:56.598Z,13.43
2022-10-20T20:51:25.307Z,10.77
2022-10-20T20:53:53.261Z,12.07
2022-10-20T20:56:23.146Z,20.73
2022-10-20T20:58:55.419Z,18.73
2022-10-20T21:01:27.369Z,20.83
2022-10-20T21:03:56.275Z,23.83
2022-10-20T21:06:33.407Z,18.93
2022-10-20T21:09:07.101Z,21.73
2022-10-20T21:11:35.191Z,17.50
2022-10-20T21:14:03.122Z,15.70
2022-10-20T21:16:34.786Z,13.20
2022-10-20T21:19:05.081Z,15.87
2022-10-20T21:21:35.849Z,13.87
2022-10-20T21:24:05.804Z,13.20
2022-10-20T21:26:34.641Z,13.83
2022-10-20T21:29:02.606Z,14.53
2022-10-20T21:31:32.216Z,9.97
2022-10-20T21:34:02.273Z,22.57
2022-10-20T21:36:32.413Z,10.83
2022-10-20T21:39:00.570Z,13.40
2022-10-20T21:41:30.662Z,10.00
2022-10-20T21:44:00.694Z,16.03
2022-10-20T21:46:30.543Z,11.50
2022-10-20T21:49:01.644Z,8.77
2022-10-20T21:51:31.973Z,11.30
2022-10-20T21:54:01.423Z,10.33
2022-10-20T21:56:29.748Z,10.30
2022-10-20T21:58:57.875Z,14.27
2022-10-20T22:01:27.013Z,12.13
2022-10-20T22:03:55.754Z,11.03
2022-10-20T22:06:27.287Z,12.00
2022-10-20T22:08:57.283Z,12.57
2022-10-20T22:11:27.281Z,13.50
2022-10-20T22:13:55.984Z,18.60
2022-10-20T22:16:26.424Z,12.20
2022-10-20T22:18:57.241Z,13.30
2022-10-20T22:21:27.603Z,13.37
2022-10-20T22:23:57.127Z,10.00
2022-10-20T22:26:27.287Z,10.60
2022-10-20T22:28:55.385Z,15.53
2022-10-20T22:31:24.027Z,11.30
2022-10-20T22:33:52.422Z,10.10
2022-10-20T22:36:20.951Z,12.87
2022-10-20T22:38:50.252Z,12.10
2022-10-20T22:41:18.444Z,10.47
2022-10-20T22:43:46.287Z,11.87
2022-10-20T22:46:16.251Z,13.33
2022-10-20T22:48:46.128Z,11.30
2022-10-20T22:51:14.797Z,9.43
2022-10-20T22:53:43.343Z,11.07
2022-10-20T22:56:14.204Z,9.87
2022-10-20T22:58:43.655Z,10.00
2022-10-20T23:01:14.224Z,10.17
2022-10-20T23:03:42.266Z,11.63
2022-10-20T23:06:13.187Z,10.70
2022-10-20T23:08:43.045Z,10.67
2022-10-20T23:11:12.524Z,6.90
